createdAt,value
2022-08-03T00:01:51.563Z,14.00
2022-08-03T00:04:18.226Z,15.50
2022-08-03T00:06:44.803Z,14.40
2022-08-03T00:09:11.958Z,14.50
2022-08-03T00:11:38.757Z,16.25
2022-08-03T00:14:05.839Z,13.40
2022-08-03T00:16:32.535Z,14.00
2022-08-03T00:19:00.812Z,16.00
2022-08-03T00:21:27.793Z,16.00
2022-08-03T00:23:54.354Z,13.50
2022-08-03T00:26:22.662Z,13.60
2022-08-03T00:28:49.567Z,14.75
2022-08-03T00:31:16.156Z,14.50
2022-08-03T00:33:58.090Z,15.00
2022-08-03T00:36:26.514Z,14.40
2022-08-03T00:38:53.159Z,14.00
2022-08-03T00:41:19.779Z,14.00
2022-08-03T00:43:47.601Z,13.75
2022-08-03T00:46:19.002Z,13.00
2022-08-03T00:48:47.343Z,16.00
2022-08-03T00:51:14.028Z,14.00
2022-08-03T00:53:40.763Z,14.80
2022-08-03T00:56:07.483Z,16.60
2022-08-03T00:58:34.161Z,16.00
2022-08-03T01:01:00.884Z,15.20
2022-08-03T01:03:27.551Z,14.60
2022-08-03T01:06:06.139Z,15.00
2022-08-03T01:08:41.395Z,13.50
2022-08-03T01:11:14.747Z,16.20
2022-08-03T01:14:03.560Z,15.80
2022-08-03T01:16:36.717Z,14.00
2022-08-03T01:19:22.252Z,14.00
2022-08-03T01:21:57.952Z,14.60
2022-08-03T01:24:43.915Z,16.60
2022-08-03T01:27:18.100Z,16.00
2022-08-03T01:29:52.692Z,15.80
2022-08-03T01:32:58.042Z,15.50
2022-08-03T01:35:14.443Z,14.00
2022-08-03T01:37:43.879Z,15.00
2022-08-03T01:40:11.936Z,14.75
2022-08-03T01:45:37.929Z,15.75
2022-08-03T01:48:05.409Z,15.00
2022-08-03T01:50:32.318Z,14.80
2022-08-03T01:52:59.347Z,16.00
2022-08-03T01:55:28.400Z,16.00
2022-08-03T01:58:06.252Z,17.00
2022-08-03T02:00:33.548Z,15.00
2022-08-03T02:03:00.959Z,17.00
2022-08-03T02:05:28.729Z,16.00
2022-08-03T02:07:56.296Z,16.00
2022-08-03T02:10:34.471Z,14.40
2022-08-03T02:13:02.164Z,15.00
2022-08-03T02:15:30.245Z,17.40
2022-08-03T02:17:57.829Z,15.00
2022-08-03T02:20:25.318Z,17.25
2022-08-03T02:22:51.950Z,15.25
2022-08-03T02:25:18.550Z,17.00
2022-08-03T02:28:05.455Z,16.40
2022-08-03T02:30:38.673Z,16.00
2022-08-03T02:33:07.685Z,14.67
2022-08-03T02:35:36.068Z,16.80
2022-08-03T02:38:04.056Z,17.00
2022-08-03T02:40:31.617Z,14.40
2022-08-03T02:42:59.650Z,15.00
2022-08-03T02:45:28.067Z,14.50
2022-08-03T02:47:57.169Z,14.25
2022-08-03T02:50:25.473Z,15.00
2022-08-03T02:52:53.390Z,16.40
2022-08-03T02:55:20.848Z,16.75
2022-08-03T02:57:47.716Z,16.67
2022-08-03T03:00:27.099Z,15.00
2022-08-03T03:02:56.447Z,16.50
2022-08-03T03:05:55.517Z,16.00
2022-08-03T03:08:17.979Z,16.20
2022-08-03T03:10:47.442Z,15.00
2022-08-03T03:13:15.326Z,17.00
2022-08-03T03:15:43.565Z,16.75
2022-08-03T03:18:10.884Z,15.00
2022-08-03T03:20:39.231Z,13.25
2022-08-03T03:23:06.000Z,13.00
2022-08-03T03:25:34.495Z,14.50
2022-08-03T03:28:02.094Z,13.00
2022-08-03T03:30:30.068Z,14.00
2022-08-03T03:32:57.999Z,13.00
2022-08-03T03:35:24.888Z,12.50
2022-08-03T03:37:52.590Z,13.00
2022-08-03T03:40:19.647Z,12.00
2022-08-03T03:42:46.441Z,14.20
2022-08-03T03:45:13.385Z,13.50
2022-08-03T03:47:40.137Z,15.40
2022-08-03T03:50:07.143Z,14.50
2022-08-03T03:52:34.121Z,14.00
2022-08-03T03:55:01.494Z,12.75
2022-08-03T03:57:29.576Z,13.25
2022-08-03T03:59:56.352Z,14.00
2022-08-03T04:02:23.043Z,13.50
2022-08-03T04:05:08.289Z,13.00
2022-08-03T04:08:01.385Z,14.00
2022-08-03T04:10:48.112Z,13.00
2022-08-03T04:13:16.088Z,12.20
2022-08-03T04:15:43.023Z,12.00
2022-08-03T04:18:12.003Z,13.40
2022-08-03T04:20:39.742Z,14.00
2022-08-03T04:23:15.470Z,13.00
2022-08-03T04:25:43.765Z,13.00
2022-08-03T04:28:30.563Z,12.20
2022-08-03T04:30:58.097Z,13.00
2022-08-03T04:33:29.429Z,12.60
2022-08-03T04:36:01.514Z,11.40
2022-08-03T04:38:30.436Z,14.00
2022-08-03T04:40:57.498Z,12.33
2022-08-03T04:43:25.457Z,12.60
2022-08-03T04:45:53.328Z,14.00
2022-08-03T04:48:20.362Z,12.00
2022-08-03T04:50:47.427Z,12.50
2022-08-03T04:53:14.175Z,14.25
2022-08-03T04:55:40.788Z,12.20
2022-08-03T04:58:07.432Z,12.00
2022-08-03T05:00:34.061Z,13.00
2022-08-03T05:03:00.628Z,13.00
2022-08-03T05:05:34.671Z,12.00
2022-08-03T05:08:13.974Z,14.00
2022-08-03T05:10:40.653Z,12.20
2022-08-03T05:13:12.120Z,12.60
2022-08-03T05:15:43.085Z,12.00
2022-08-03T05:18:13.885Z,12.60
2022-08-03T05:20:41.057Z,13.40
2022-08-03T05:23:07.695Z,10.40
2022-08-03T05:25:34.478Z,11.60
2022-08-03T05:28:01.608Z,12.00
2022-08-03T05:30:33.137Z,11.80
2022-08-03T05:33:01.340Z,12.20
2022-08-03T05:36:01.034Z,13.25
2022-08-03T05:38:24.162Z,10.00
2022-08-03T05:40:57.488Z,13.00
2022-08-03T05:43:42.569Z,11.00
2022-08-03T05:46:12.218Z,11.25
2022-08-03T05:48:39.377Z,13.00
2022-08-03T05:51:07.876Z,11.80
2022-08-03T05:53:34.949Z,11.00
2022-08-03T05:56:13.369Z,11.80
2022-08-03T05:58:41.975Z,11.00
2022-08-03T06:01:08.681Z,12.60
2022-08-03T06:03:35.362Z,12.20
2022-08-03T06:06:02.096Z,13.50
2022-08-03T06:08:28.759Z,11.40
2022-08-03T06:10:55.352Z,13.50
2022-08-03T06:13:22.241Z,12.00
2022-08-03T06:15:48.842Z,10.60
2022-08-03T06:18:15.465Z,13.00
2022-08-03T06:20:42.177Z,12.40
2022-08-03T06:23:16.278Z,12.00
2022-08-03T06:25:44.805Z,13.00
2022-08-03T06:28:35.428Z,13.00
2022-08-03T06:30:59.330Z,15.00
2022-08-03T06:34:31.633Z,12.80
2022-08-03T06:36:13.328Z,11.20
2022-08-03T06:38:39.970Z,11.00
2022-08-03T06:41:06.575Z,13.67
2022-08-03T06:43:37.944Z,13.00
2022-08-03T06:46:08.400Z,13.00
2022-08-03T06:48:35.009Z,13.00
2022-08-03T06:51:01.632Z,13.75
2022-08-03T06:53:28.206Z,12.00
2022-08-03T06:55:55.376Z,13.00
2022-08-03T06:58:22.403Z,13.60
2022-08-03T07:00:49.049Z,13.67
2022-08-03T07:03:15.657Z,15.00
2022-08-03T07:05:42.890Z,12.50
2022-08-03T07:08:09.888Z,13.25
2022-08-03T07:10:37.117Z,12.20
2022-08-03T07:13:04.105Z,12.00
2022-08-03T07:15:54.434Z,13.00
2022-08-03T07:18:17.888Z,11.40
2022-08-03T07:20:56.495Z,13.00
2022-08-03T07:23:23.206Z,14.50
2022-08-03T07:25:51.015Z,15.50
2022-08-03T07:28:18.051Z,14.00
2022-08-03T07:30:44.690Z,13.80
2022-08-03T07:33:11.725Z,15.00
2022-08-03T07:35:38.477Z,15.00
2022-08-03T07:38:05.168Z,17.00
2022-08-03T07:40:32.203Z,15.00
2022-08-03T07:42:59.286Z,15.20
2022-08-03T07:45:26.943Z,14.60
2022-08-03T07:47:58.412Z,16.60
2022-08-03T07:50:25.183Z,14.50
2022-08-03T07:52:52.976Z,13.60
2022-08-03T07:55:21.871Z,13.00
2022-08-03T07:57:59.613Z,13.67
2022-08-03T08:00:26.257Z,16.00
2022-08-03T08:02:52.845Z,12.40
2022-08-03T08:05:19.573Z,13.00
2022-08-03T08:07:51.564Z,13.00
2022-08-03T08:10:18.784Z,13.75
2022-08-03T08:12:45.589Z,13.40
2022-08-03T08:15:12.309Z,12.60
2022-08-03T08:17:43.307Z,12.00
2022-08-03T08:20:11.339Z,13.40
2022-08-03T08:22:37.945Z,12.60
2022-08-03T08:25:07.408Z,12.60
2022-08-03T08:28:31.174Z,13.00
2022-08-03T08:30:21.879Z,12.00
2022-08-03T08:32:49.013Z,12.00
2022-08-03T08:35:16.100Z,13.20
2022-08-03T08:37:43.522Z,11.00
2022-08-03T08:40:20.450Z,11.00
2022-08-03T08:42:57.895Z,11.50
2022-08-03T08:45:25.671Z,10.20
2022-08-03T08:47:55.674Z,12.00
2022-08-03T08:50:27.329Z,10.60
2022-08-03T08:52:55.197Z,10.00
2022-08-03T08:55:23.903Z,11.50
2022-08-03T08:57:59.430Z,9.40
2022-08-03T09:00:26.187Z,10.60
2022-08-03T09:02:53.145Z,8.50
2022-08-03T09:05:27.839Z,8.60
2022-08-03T09:08:07.242Z,8.80
2022-08-03T09:10:35.006Z,10.00
2022-08-03T09:13:01.612Z,10.20
2022-08-03T09:15:33.830Z,8.20
2022-08-03T09:18:01.792Z,8.00
2022-08-03T09:20:32.479Z,6.67
2022-08-03T09:23:00.239Z,9.00
2022-08-03T09:25:31.092Z,9.00
2022-08-03T09:28:07.370Z,8.00
2022-08-03T09:30:35.247Z,10.00
2022-08-03T09:33:08.360Z,9.20
2022-08-03T09:35:57.825Z,9.00
2022-08-03T09:38:28.089Z,8.40
2022-08-03T09:40:59.478Z,8.00
2022-08-03T09:43:27.919Z,7.00
2022-08-03T09:46:02.719Z,8.00
2022-08-03T09:48:30.224Z,9.00
2022-08-03T09:51:12.809Z,7.20
2022-08-03T09:53:58.565Z,7.40
2022-08-03T09:56:37.765Z,8.00
2022-08-03T09:59:04.650Z,8.00
2022-08-03T10:01:37.627Z,8.00
2022-08-03T10:04:05.272Z,9.00
2022-08-03T10:06:32.453Z,7.00
2022-08-03T10:09:25.239Z,9.25
2022-08-03T10:11:51.944Z,7.20
2022-08-03T10:14:22.641Z,10.00
2022-08-03T10:16:49.827Z,11.00
2022-08-03T10:19:16.707Z,10.80
2022-08-03T10:21:57.052Z,10.00
2022-08-03T10:24:26.286Z,9.00
2022-08-03T10:26:53.996Z,10.00
2022-08-03T10:29:22.683Z,8.40
2022-08-03T10:31:54.734Z,10.25
2022-08-03T10:34:26.805Z,10.00
2022-08-03T10:36:55.799Z,10.40
2022-08-03T10:39:23.193Z,9.40
2022-08-03T10:41:50.828Z,9.00
2022-08-03T10:44:20.627Z,8.50
2022-08-03T10:46:47.762Z,8.00
2022-08-03T10:49:15.441Z,9.40
2022-08-03T10:51:42.863Z,7.25
2022-08-03T10:54:29.485Z,8.00
2022-08-03T10:57:15.348Z,7.60
2022-08-03T10:59:48.713Z,8.60
2022-08-03T11:02:15.639Z,8.60
2022-08-03T11:04:43.006Z,9.20
2022-08-03T11:07:15.996Z,8.00
2022-08-03T11:09:44.168Z,9.20
2022-08-03T11:12:37.519Z,7.50
2022-08-03T11:15:10.008Z,7.00
2022-08-03T11:17:46.758Z,7.50
2022-08-03T11:20:41.561Z,7.80
2022-08-03T11:23:08.318Z,7.20
2022-08-03T11:25:55.453Z,8.00
2022-08-03T11:28:25.393Z,9.00
2022-08-03T11:30:52.137Z,8.33
2022-08-03T11:33:31.620Z,9.00
2022-08-03T11:35:59.765Z,9.00
2022-08-03T11:38:26.448Z,9.40
2022-08-03T11:40:53.693Z,10.00
2022-08-03T11:43:30.640Z,8.00
2022-08-03T11:45:57.824Z,8.75
2022-08-03T11:48:27.039Z,7.50
2022-08-03T11:50:53.735Z,10.00
2022-08-03T11:53:20.965Z,9.00
2022-08-03T11:55:51.155Z,8.00
2022-08-03T11:59:16.587Z,10.00
2022-08-03T12:01:10.780Z,8.40
2022-08-03T12:03:37.567Z,8.60
2022-08-03T12:06:09.144Z,8.00
2022-08-03T12:08:35.864Z,9.40
2022-08-03T12:11:05.918Z,8.00
2022-08-03T12:14:44.636Z,8.00
2022-08-03T12:16:25.801Z,8.50
2022-08-03T12:19:02.753Z,10.00
2022-08-03T12:21:29.751Z,10.00
2022-08-03T12:23:57.503Z,9.00
2022-08-03T12:26:24.126Z,9.00
2022-08-03T12:28:50.768Z,9.00
2022-08-03T12:31:17.607Z,9.00
2022-08-03T12:33:56.373Z,9.00
2022-08-03T12:36:23.201Z,10.00
2022-08-03T12:39:02.605Z,11.00
2022-08-03T12:41:35.507Z,9.00
2022-08-03T12:44:03.810Z,8.00
2022-08-03T12:46:33.654Z,11.25
2022-08-03T12:49:03.826Z,9.80
2022-08-03T12:51:32.278Z,8.00
2022-08-03T12:53:59.174Z,8.75
2022-08-03T12:56:26.199Z,7.00
2022-08-03T12:58:53.329Z,8.25
2022-08-03T13:01:22.657Z,9.75
2022-08-03T13:03:52.717Z,7.60
2022-08-03T13:06:24.264Z,8.00
2022-08-03T13:09:01.579Z,9.00
2022-08-03T13:11:52.502Z,7.25
2022-08-03T13:14:19.602Z,9.00
2022-08-03T13:16:46.517Z,8.20
2022-08-03T13:19:15.590Z,8.00
2022-08-03T13:22:01.333Z,8.00
2022-08-03T13:24:30.360Z,7.75
2022-08-03T13:26:57.258Z,8.00
2022-08-03T13:29:23.897Z,7.00
2022-08-03T13:31:51.191Z,7.00
2022-08-03T13:34:22.927Z,8.80
2022-08-03T13:37:08.362Z,9.00
2022-08-03T13:39:58.149Z,7.75
2022-08-03T13:42:22.904Z,8.00
2022-08-03T13:44:49.640Z,7.00
2022-08-03T13:47:17.297Z,8.20
2022-08-03T13:50:00.497Z,6.60
2022-08-03T13:52:29.369Z,6.20
2022-08-03T13:54:55.995Z,7.20
2022-08-03T13:58:04.970Z,9.00
2022-08-03T14:00:12.542Z,7.60
2022-08-03T14:02:39.259Z,6.00
2022-08-03T14:05:05.989Z,9.40
2022-08-03T14:07:32.675Z,7.80
2022-08-03T14:09:59.301Z,7.00
2022-08-03T14:12:25.911Z,6.00
2022-08-03T14:14:52.558Z,6.00
2022-08-03T14:17:19.569Z,6.00
2022-08-03T14:19:53.446Z,7.00
2022-08-03T14:22:21.017Z,7.00
2022-08-03T14:24:47.637Z,7.25
2022-08-03T14:27:15.932Z,6.20
2022-08-03T14:29:42.573Z,7.75
2022-08-03T14:32:12.857Z,8.00
2022-08-03T14:34:40.452Z,7.00
2022-08-03T14:37:07.131Z,6.60
2022-08-03T14:42:20.680Z,8.00
2022-08-03T14:44:47.539Z,6.00
2022-08-03T14:47:14.476Z,5.00
2022-08-03T14:50:38.415Z,6.00
2022-08-03T14:52:28.039Z,6.00
2022-08-03T14:54:54.769Z,6.00
2022-08-03T14:57:21.585Z,6.00
2022-08-03T14:59:56.267Z,8.00
2022-08-03T15:02:24.344Z,7.75
2022-08-03T15:04:51.179Z,6.00
2022-08-03T15:07:18.149Z,7.00
2022-08-03T15:09:45.075Z,6.00
2022-08-03T15:12:11.712Z,6.60
2022-08-03T15:14:38.302Z,8.00
2022-08-03T15:17:05.323Z,5.25
2022-08-03T15:20:04.966Z,6.00
2022-08-03T15:22:20.635Z,6.00
2022-08-03T15:24:51.857Z,7.60
2022-08-03T15:27:18.762Z,7.00
2022-08-03T15:30:05.573Z,6.60
2022-08-03T15:32:34.938Z,7.00
2022-08-03T15:35:01.702Z,8.00
2022-08-03T15:37:28.605Z,5.75
2022-08-03T15:39:59.578Z,7.00
2022-08-03T15:42:30.320Z,7.40
2022-08-03T15:44:57.082Z,5.80
2022-08-03T15:47:23.940Z,6.00
2022-08-03T15:49:50.587Z,6.50
2022-08-03T15:52:17.248Z,6.00
2022-08-03T15:54:44.080Z,6.60
2022-08-03T15:57:10.735Z,7.80
2022-08-03T15:59:37.410Z,6.60
2022-08-03T16:02:04.193Z,7.00
2022-08-03T16:04:31.002Z,7.80
2022-08-03T16:06:57.750Z,7.00
2022-08-03T16:09:42.412Z,7.00
2022-08-03T16:12:14.548Z,6.60
2022-08-03T16:14:51.771Z,7.75
2022-08-03T16:17:20.348Z,7.00
2022-08-03T16:19:47.180Z,6.00
2022-08-03T16:22:14.414Z,6.00
2022-08-03T16:24:41.372Z,8.00
2022-08-03T16:27:37.367Z,9.40
2022-08-03T16:29:54.984Z,8.00
2022-08-03T16:32:21.647Z,7.25
2022-08-03T16:34:48.362Z,6.00
2022-08-03T16:37:37.757Z,7.00
2022-08-03T16:40:02.122Z,6.00
2022-08-03T16:42:28.861Z,6.50
2022-08-03T16:44:55.453Z,8.00
2022-08-03T16:47:22.922Z,7.50
2022-08-03T16:49:54.187Z,6.40
2022-08-03T16:52:23.037Z,6.25
2022-08-03T16:54:52.674Z,8.00
2022-08-03T16:57:56.748Z,8.00
2022-08-03T17:00:09.391Z,7.00
2022-08-03T17:02:36.424Z,8.00
2022-08-03T17:05:03.854Z,7.00
2022-08-03T17:07:30.560Z,7.25
2022-08-03T17:09:57.560Z,7.50
2022-08-03T17:12:26.945Z,6.00
2022-08-03T17:14:54.175Z,8.00
2022-08-03T17:17:28.113Z,7.00
2022-08-03T17:19:55.450Z,7.00
2022-08-03T17:22:24.808Z,8.00
2022-08-03T17:24:52.250Z,8.00
2022-08-03T17:28:48.764Z,7.40
2022-08-03T17:30:13.507Z,6.00
2022-08-03T17:32:42.996Z,6.00
2022-08-03T17:35:23.242Z,8.00
2022-08-03T17:38:03.442Z,7.40
2022-08-03T17:40:31.865Z,6.00
2022-08-03T17:42:59.811Z,7.00
2022-08-03T17:45:51.857Z,8.00
2022-08-03T17:48:13.187Z,7.67
2022-08-03T17:50:48.528Z,8.00
2022-08-03T17:53:24.250Z,8.75
2022-08-03T17:56:07.699Z,7.00
2022-08-03T17:58:58.127Z,7.40
2022-08-03T18:02:03.589Z,8.00
2022-08-03T18:04:38.316Z,7.00
2022-08-03T18:07:12.161Z,6.00
2022-08-03T18:10:03.560Z,7.40
2022-08-03T18:12:34.625Z,7.00
2022-08-03T18:15:08.609Z,6.00
2022-08-03T18:17:55.256Z,6.40
2022-08-03T18:20:31.305Z,8.60
2022-08-03T18:23:05.502Z,8.80
2022-08-03T18:25:45.368Z,8.00
2022-08-03T18:28:16.516Z,8.60
2022-08-03T18:30:54.369Z,9.00
2022-08-03T18:34:17.949Z,8.50
2022-08-03T18:36:10.031Z,9.00
2022-08-03T18:38:40.215Z,8.00
2022-08-03T18:41:13.223Z,8.80
2022-08-03T18:43:47.603Z,8.00
2022-08-03T18:46:50.663Z,8.75
2022-08-03T18:49:35.741Z,8.00
2022-08-03T18:52:22.345Z,9.50
2022-08-03T18:55:20.295Z,9.75
2022-08-03T18:57:47.520Z,8.00
2022-08-03T19:00:23.866Z,8.25
2022-08-03T19:03:02.423Z,8.20
2022-08-03T19:05:56.313Z,8.50
2022-08-03T19:08:26.100Z,9.60
2022-08-03T19:11:00.550Z,8.50
2022-08-03T19:13:36.425Z,9.75
2022-08-03T19:16:04.548Z,10.00
2022-08-03T19:18:37.269Z,9.60
2022-08-03T19:21:12.718Z,10.40
2022-08-03T19:23:44.768Z,8.40
2022-08-03T19:26:30.244Z,8.80
2022-08-03T19:28:57.483Z,10.50
2022-08-03T19:34:14.277Z,8.60
2022-08-03T19:36:43.880Z,8.80
2022-08-03T19:39:10.991Z,10.00
2022-08-03T19:41:41.855Z,9.50
2022-08-03T19:44:10.687Z,11.00
2022-08-03T19:46:43.579Z,9.80
2022-08-03T19:49:15.971Z,10.00
2022-08-03T19:52:00.862Z,10.00
2022-08-03T19:54:35.668Z,9.00
2022-08-03T19:57:02.754Z,8.00
2022-08-03T19:59:35.903Z,10.00
2022-08-03T20:02:05.487Z,10.00
2022-08-03T20:04:32.394Z,11.00
2022-08-03T20:07:00.076Z,10.40
2022-08-03T20:09:30.379Z,11.67
2022-08-03T20:11:57.377Z,10.00
2022-08-03T20:14:26.454Z,10.80
2022-08-03T20:16:53.735Z,11.00
2022-08-03T20:19:20.596Z,13.50
2022-08-03T20:21:47.834Z,11.00
2022-08-03T20:24:36.150Z,12.00
2022-08-03T20:27:07.694Z,13.20
2022-08-03T20:30:05.061Z,12.75
2022-08-03T20:32:24.377Z,14.00
2022-08-03T20:34:51.480Z,13.50
2022-08-03T20:37:19.683Z,13.00
2022-08-03T20:39:48.342Z,13.25
2022-08-03T20:42:19.210Z,13.20
2022-08-03T20:45:04.664Z,13.40
2022-08-03T20:47:34.239Z,14.00
2022-08-03T20:50:07.590Z,15.00
2022-08-03T20:52:36.618Z,15.00
2022-08-03T20:55:16.844Z,12.75
2022-08-03T20:57:43.539Z,13.40
2022-08-03T21:00:21.968Z,14.75
2022-08-03T21:02:48.850Z,14.00
2022-08-03T21:05:15.493Z,12.00
2022-08-03T21:08:06.144Z,14.00
2022-08-03T21:10:33.863Z,10.50
2022-08-03T21:13:10.224Z,9.00
2022-08-03T21:13:16.885Z,12.50
2022-08-03T21:16:03.261Z,13.60
2022-08-03T21:18:36.619Z,14.50
2022-08-03T21:21:03.498Z,13.75
2022-08-03T21:23:39.846Z,13.40
2022-08-03T21:26:16.860Z,11.60
2022-08-03T21:28:45.343Z,12.00
2022-08-03T21:31:12.383Z,13.00
2022-08-03T21:33:40.815Z,12.00
2022-08-03T21:36:08.430Z,12.50
2022-08-03T21:38:36.102Z,13.00
2022-08-03T21:41:03.445Z,12.00
2022-08-03T21:43:30.147Z,14.00
2022-08-03T21:46:01.563Z,12.00
2022-08-03T21:48:30.942Z,12.25
2022-08-03T21:50:57.548Z,15.00
2022-08-03T21:53:28.040Z,15.50
2022-08-03T21:56:15.026Z,14.00
2022-08-03T21:58:46.396Z,14.80
2022-08-03T22:01:19.561Z,15.00
2022-08-03T22:03:51.082Z,15.00
2022-08-03T22:06:21.014Z,13.40
2022-08-03T22:08:49.643Z,14.25
2022-08-03T22:11:16.320Z,12.60
2022-08-03T22:13:44.586Z,12.80
2022-08-03T22:16:11.896Z,14.60
2022-08-03T22:18:39.651Z,15.00
2022-08-03T22:21:06.880Z,12.40
2022-08-03T22:23:37.889Z,15.40
2022-08-03T22:26:04.769Z,14.60
2022-08-03T22:28:31.469Z,15.20
2022-08-03T22:30:59.184Z,15.40
2022-08-03T22:33:47.354Z,14.50
2022-08-03T22:36:16.659Z,13.00
2022-08-03T22:38:43.518Z,13.75
2022-08-03T22:41:10.238Z,14.00
2022-08-03T22:43:37.996Z,16.00
2022-08-03T22:46:10.371Z,13.00
2022-08-03T22:48:41.414Z,12.00
2022-08-03T22:51:08.626Z,12.00
2022-08-03T22:53:42.818Z,13.00
2022-08-03T22:56:10.102Z,16.00
2022-08-03T22:58:36.763Z,13.00
2022-08-03T23:01:05.882Z,15.00
2022-08-03T23:03:58.889Z,15.00
2022-08-03T23:06:21.909Z,13.60
2022-08-03T23:08:50.471Z,14.00
2022-08-03T23:11:18.023Z,15.00
2022-08-03T23:13:46.822Z,13.40
2022-08-03T23:16:14.273Z,14.50
2022-08-03T23:18:42.604Z,13.60
2022-08-03T23:21:11.613Z,15.00
2022-08-03T23:23:44.679Z,12.50
2022-08-03T23:26:12.866Z,13.00
2022-08-03T23:28:39.958Z,14.00
2022-08-03T23:31:08.062Z,14.00
2022-08-03T23:33:37.441Z,13.00
2022-08-03T23:36:28.660Z,14.60
2022-08-03T23:38:53.653Z,13.00
2022-08-03T23:41:20.549Z,15.60
2022-08-03T23:43:51.942Z,15.00
2022-08-03T23:46:21.962Z,14.75
2022-08-03T23:48:48.709Z,14.60
2022-08-03T23:51:31.343Z,13.00
2022-08-03T23:54:09.860Z,15.20
2022-08-03T23:56:36.447Z,12.20
2022-08-03T23:59:14.652Z,15.00
